CheckWX is a tool to help pilots better visualize weather data.  It is not intended as a substitute for an official pre-flight weather briefing.

20:31:53 UTC

KELP TAF
El Paso International Airport
El Paso, Texas, USA
KELP 221720Z 2218/2318 26017G25KT P6SM FEW250 FM230400 29010KT P6SM SKC

Mar-22@
18:00 UTC

Mar-22 @ 18:00 UTC

Mar-23@
04:00 UTC

Mar-23 @ 04:00 UTC

KELP 221720Z 2218/2318 26017G25KT P6SM FEW250
Wind
  • 260° at 17 KTS
  • {Gusting to 25 KTS
Cloud Levels
  • Few at 25,000' AGL

Mar-23@
04:00 UTC

Mar-23 @ 04:00 UTC

Mar-23@
18:00 UTC

Mar-23 @ 18:00 UTC

FM230400 29010KT P6SM SKC

From

From Standard forecast or significant change

Wind
  • 290° at 10 KTS
Cloud Levels
  • Clear skies